createdAt,value
2022-09-29T00:04:38.389Z,9.60
2022-09-29T00:09:39.879Z,7.65
2022-09-29T00:14:44.565Z,8.23
2022-09-29T00:19:48.445Z,8.52
2022-09-29T00:24:49.911Z,8.15
2022-09-29T00:29:52.052Z,7.82
2022-09-29T00:34:53.453Z,8.60
2022-09-29T00:39:54.907Z,8.93
2022-09-29T00:45:07.168Z,9.10
2022-09-29T00:50:20.397Z,8.93
2022-09-29T00:55:27.871Z,11.25
2022-09-29T01:00:29.523Z,11.57
2022-09-29T01:05:39.908Z,12.35
2022-09-29T01:10:41.570Z,12.77
2022-09-29T01:15:43.293Z,13.52
2022-09-29T01:21:29.697Z,15.60
2022-09-29T01:26:45.715Z,16.02
2022-09-29T01:31:56.063Z,16.33
2022-09-29T01:37:26.383Z,17.80
2022-09-29T01:42:35.912Z,15.27
2022-09-29T01:47:42.771Z,15.55
2022-09-29T01:52:48.184Z,16.75
2022-09-29T01:58:10.200Z,15.43
2022-09-29T02:03:17.475Z,17.42
2022-09-29T02:08:48.556Z,17.20
2022-09-29T02:14:00.136Z,15.38
2022-09-29T02:19:13.544Z,16.77
2022-09-29T02:24:15.275Z,17.67
2022-09-29T02:29:17.901Z,17.50
2022-09-29T02:34:21.814Z,17.25
2022-09-29T02:39:39.692Z,17.20
2022-09-29T02:45:19.804Z,16.50
2022-09-29T02:50:31.514Z,17.38
2022-09-29T02:55:57.179Z,19.02
2022-09-29T03:01:00.145Z,18.75
2022-09-29T03:06:01.986Z,19.45
2022-09-29T03:11:03.669Z,20.17
2022-09-29T03:16:05.323Z,20.20
2022-09-29T03:21:06.816Z,20.90
2022-09-29T03:26:08.312Z,20.52
2022-09-29T03:31:10.508Z,20.35
2022-09-29T03:36:12.088Z,20.13
2022-09-29T03:41:13.682Z,20.38
2022-09-29T03:46:15.200Z,21.20
2022-09-29T03:51:16.765Z,20.70
2022-09-29T03:56:18.198Z,19.85
2022-09-29T04:01:19.851Z,20.20
2022-09-29T04:06:21.316Z,20.23
2022-09-29T04:11:22.728Z,22.88
2022-09-29T04:16:24.281Z,19.38
2022-09-29T04:21:26.000Z,21.23
2022-09-29T04:26:27.411Z,21.83
2022-09-29T04:31:28.894Z,21.73
2022-09-29T04:36:30.431Z,21.75
2022-09-29T04:41:34.783Z,22.02
2022-09-29T04:46:36.195Z,23.63
2022-09-29T04:51:37.665Z,21.92
2022-09-29T04:56:39.231Z,22.63
2022-09-29T05:01:40.671Z,21.40
2022-09-29T05:06:42.171Z,22.55
2022-09-29T05:11:43.637Z,22.35
2022-09-29T05:16:45.155Z,22.65
2022-09-29T05:21:46.864Z,21.67
2022-09-29T05:26:48.285Z,22.40
2022-09-29T05:31:50.993Z,23.02
2022-09-29T05:36:52.447Z,22.92
2022-09-29T05:41:58.828Z,22.67
2022-09-29T05:47:01.076Z,21.55
2022-09-29T05:52:02.479Z,20.08
2022-09-29T05:57:04.088Z,21.23
2022-09-29T06:02:05.623Z,21.08
2022-09-29T06:07:07.041Z,20.65
2022-09-29T06:12:08.548Z,20.20
2022-09-29T06:17:09.954Z,21.42
2022-09-29T06:22:11.601Z,20.77
2022-09-29T06:27:13.210Z,19.83
2022-09-29T06:32:15.080Z,19.88
2022-09-29T06:37:34.737Z,20.95
2022-09-29T06:42:36.207Z,19.05
2022-09-29T06:47:37.686Z,18.70
2022-09-29T06:52:39.108Z,17.13
2022-09-29T06:57:40.834Z,20.75
2022-09-29T07:02:46.484Z,19.65
2022-09-29T07:07:52.014Z,17.55
2022-09-29T07:12:55.441Z,15.63
2022-09-29T07:18:01.797Z,10.80
2022-09-29T07:23:03.212Z,10.23
2022-09-29T07:28:04.809Z,7.72
2022-09-29T07:33:06.795Z,6.50
2022-09-29T07:38:08.456Z,6.30
2022-09-29T07:43:10.029Z,6.20
2022-09-29T07:48:11.850Z,6.18
2022-09-29T07:53:14.256Z,6.22
2022-09-29T07:58:15.795Z,6.45
2022-09-29T08:03:17.208Z,5.05
2022-09-29T08:08:18.680Z,5.20
2022-09-29T08:13:20.128Z,5.85
2022-09-29T08:18:21.517Z,5.55
2022-09-29T08:23:23.337Z,5.70
2022-09-29T08:28:31.484Z,5.45
2022-09-29T08:33:34.905Z,4.78
2022-09-29T08:38:42.580Z,4.80
2022-09-29T08:43:46.096Z,4.30
2022-09-29T08:48:57.375Z,3.70
2022-09-29T08:54:07.875Z,3.15
2022-09-29T08:59:12.201Z,2.13
2022-09-29T09:04:27.093Z,2.08
2022-09-29T09:09:42.771Z,1.75
2022-09-29T09:14:49.850Z,1.60
2022-09-29T09:20:32.199Z,1.60
2022-09-29T09:25:36.372Z,1.00
2022-09-29T09:30:45.083Z,1.13
2022-09-29T09:35:58.741Z,1.50
2022-09-29T09:41:02.029Z,0.95
2022-09-29T09:46:14.717Z,0.80
2022-09-29T09:57:19.319Z,0.50
2022-09-29T10:02:22.523Z,0.60
2022-09-29T10:07:27.875Z,0.50
2022-09-29T10:12:29.381Z,0.90
2022-09-29T10:17:38.159Z,1.13
2022-09-29T10:22:39.573Z,0.90
2022-09-29T10:27:48.369Z,0.88
2022-09-29T10:32:57.001Z,0.98
2022-09-29T10:38:05.652Z,1.08
2022-09-29T10:43:25.463Z,1.20
2022-09-29T10:48:27.349Z,1.00
2022-09-29T10:53:43.212Z,0.98
2022-09-29T10:59:01.414Z,1.33
2022-09-29T11:04:19.122Z,1.10
2022-09-29T11:09:20.821Z,1.00
2022-09-29T11:14:37.997Z,0.65
2022-09-29T11:19:40.828Z,0.88
2022-09-29T11:24:58.643Z,2.50
2022-09-29T11:30:11.796Z,1.33
2022-09-29T11:35:31.571Z,2.00
2022-09-29T11:41:07.953Z,1.17
2022-09-29T11:46:35.478Z,1.73
2022-09-29T11:52:01.583Z,1.02
2022-09-29T11:57:06.079Z,1.15
2022-09-29T12:07:46.173Z,1.10
2022-09-29T12:12:57.848Z,1.10
2022-09-29T12:18:03.611Z,1.10
2022-09-29T12:23:11.954Z,1.15
2022-09-29T12:28:18.067Z,1.20
2022-09-29T12:33:29.383Z,1.05
2022-09-29T12:38:40.020Z,1.25
2022-09-29T12:43:44.022Z,1.08
2022-09-29T12:48:54.428Z,1.50
2022-09-29T12:54:29.846Z,1.52
2022-09-29T13:00:09.939Z,1.40
2022-09-29T13:05:49.005Z,1.20
2022-09-29T13:11:00.133Z,1.20
2022-09-29T13:16:25.269Z,1.30
2022-09-29T13:21:51.981Z,1.23
2022-09-29T13:27:10.207Z,1.83
2022-09-29T13:32:12.060Z,1.70
2022-09-29T13:37:18.673Z,2.13
2022-09-29T13:42:43.740Z,2.00
2022-09-29T13:47:55.903Z,2.10
2022-09-29T13:53:31.058Z,2.50
2022-09-29T13:58:35.412Z,1.77
2022-09-29T14:03:42.112Z,1.70
2022-09-29T14:08:52.599Z,1.65
2022-09-29T14:13:59.665Z,1.58
2022-09-29T14:19:30.957Z,1.63
2022-09-29T14:24:35.599Z,2.05
2022-09-29T14:34:44.526Z,3.25
2022-09-29T14:40:07.543Z,3.85
2022-09-29T14:45:32.303Z,3.03
2022-09-29T14:51:01.633Z,3.45
2022-09-29T14:56:09.095Z,3.25
2022-09-29T15:01:25.290Z,3.53
2022-09-29T15:06:28.967Z,3.05
2022-09-29T15:11:46.190Z,3.70
2022-09-29T15:16:53.724Z,3.20
2022-09-29T15:22:30.984Z,2.80
2022-09-29T15:27:33.835Z,4.47
2022-09-29T15:32:41.233Z,4.45
2022-09-29T15:37:53.010Z,3.90
2022-09-29T15:42:55.674Z,3.38
2022-09-29T15:48:06.121Z,4.50
2022-09-29T15:53:10.294Z,4.15
2022-09-29T15:58:27.142Z,5.43
2022-09-29T16:03:39.135Z,3.63
2022-09-29T16:08:46.975Z,4.40
2022-09-29T16:13:54.997Z,3.97
2022-09-29T16:19:02.207Z,4.53
2022-09-29T16:24:11.472Z,6.68
2022-09-29T16:29:15.917Z,7.53
2022-09-29T16:34:23.097Z,6.30
2022-09-29T16:39:27.916Z,6.10
2022-09-29T16:44:53.432Z,5.90
2022-09-29T16:50:05.058Z,7.65
2022-09-29T16:55:27.713Z,9.77
2022-09-29T17:00:30.389Z,8.68
2022-09-29T17:05:40.257Z,7.43
2022-09-29T17:10:43.168Z,7.45
2022-09-29T17:15:48.501Z,22.45
2022-09-29T17:20:50.138Z,7.82
2022-09-29T17:25:52.067Z,9.00
2022-09-29T17:30:55.695Z,7.28
2022-09-29T17:35:57.666Z,11.50
2022-09-29T17:41:03.625Z,15.40
2022-09-29T17:46:06.904Z,10.25
2022-09-29T17:51:13.969Z,9.85
2022-09-29T17:56:26.701Z,15.38
2022-09-29T18:01:28.579Z,8.70
2022-09-29T18:06:32.465Z,7.32
2022-09-29T18:11:33.919Z,6.30
2022-09-29T18:16:35.813Z,7.10
2022-09-29T18:21:38.003Z,7.05
2022-09-29T18:26:43.991Z,6.55
2022-09-29T18:31:45.585Z,8.32
2022-09-29T18:36:47.121Z,7.25
2022-09-29T18:41:48.585Z,7.68
2022-09-29T18:46:50.296Z,7.53
2022-09-29T18:51:52.728Z,7.90
2022-09-29T18:56:54.900Z,7.93
2022-09-29T19:01:56.703Z,6.68
2022-09-29T19:06:58.238Z,7.03
2022-09-29T19:11:59.846Z,7.57
2022-09-29T19:17:01.434Z,7.18
2022-09-29T19:22:02.863Z,6.32
2022-09-29T19:27:04.571Z,6.95
2022-09-29T19:32:06.169Z,6.60
2022-09-29T19:37:07.823Z,7.68
2022-09-29T19:42:09.379Z,7.88
2022-09-29T19:47:10.997Z,7.32
2022-09-29T19:52:12.466Z,7.20
2022-09-29T19:57:16.159Z,6.88
2022-09-29T20:02:17.789Z,6.97
2022-09-29T20:07:19.316Z,6.50
2022-09-29T20:12:20.924Z,5.95
2022-09-29T20:17:22.456Z,5.93
2022-09-29T20:22:27.125Z,5.65
2022-09-29T20:27:28.912Z,5.40
2022-09-29T20:32:30.337Z,5.80
2022-09-29T20:37:31.787Z,6.82
2022-09-29T20:42:37.208Z,7.50
2022-09-29T20:47:38.772Z,8.38
2022-09-29T20:52:40.186Z,6.43
2022-09-29T20:57:46.031Z,6.65
2022-09-29T21:02:51.482Z,6.85
2022-09-29T21:07:54.011Z,6.15
2022-09-29T21:12:55.578Z,6.60
2022-09-29T21:17:57.004Z,6.00
2022-09-29T21:22:58.596Z,6.22
2022-09-29T21:28:00.420Z,6.55
2022-09-29T21:33:01.986Z,5.30
2022-09-29T21:38:03.396Z,6.20
2022-09-29T21:43:04.926Z,5.35
2022-09-29T21:48:09.025Z,5.82
2022-09-29T21:53:11.704Z,4.75
2022-09-29T21:58:13.180Z,6.13
2022-09-29T22:03:15.595Z,5.40
2022-09-29T22:08:17.449Z,6.30
2022-09-29T22:13:20.040Z,6.15
2022-09-29T22:18:24.654Z,6.00
2022-09-29T22:23:27.615Z,6.53
2022-09-29T22:28:29.477Z,6.45
2022-09-29T22:33:31.126Z,6.78
2022-09-29T22:38:37.349Z,6.03
2022-09-29T22:43:39.421Z,6.18
2022-09-29T22:48:40.849Z,6.50
2022-09-29T22:53:42.817Z,6.00
2022-09-29T22:58:44.485Z,6.13
2022-09-29T23:03:46.066Z,5.95
2022-09-29T23:08:47.598Z,5.25
2022-09-29T23:13:49.133Z,5.55
2022-09-29T23:18:55.323Z,5.75
2022-09-29T23:23:59.564Z,6.22
2022-09-29T23:29:01.167Z,5.70
2022-09-29T23:34:02.663Z,5.97
2022-09-29T23:39:10.477Z,6.80
2022-09-29T23:44:15.315Z,5.85
2022-09-29T23:54:21.804Z,7.07
2022-09-29T23:59:23.995Z,6.35
